sensor_id;sensor_type;location;lat;lon;timestamp;P1;durP1;ratioP1;P2;durP2;ratioP2
72404;SDS011;60395;52.020;113.548;2023-04-03T07:40:06;3.70;;;1.75;;
72404;SDS011;60395;52.020;113.548;2023-04-03T07:43:11;10.30;;;1.20;;
72404;SDS011;60395;52.020;113.548;2023-04-03T07:46:15;3.85;;;1.75;;
72404;SDS011;60395;52.020;113.548;2023-04-03T07:49:20;4.47;;;1.70;;
72404;SDS011;60395;52.020;113.548;2023-04-03T07:52:25;3.35;;;1.52;;
72404;SDS011;60395;52.020;113.548;2023-04-03T07:55:28;2.35;;;1.35;;
72404;SDS011;60395;52.020;113.548;2023-04-03T07:58:33;1.85;;;1.00;;
72404;SDS011;60395;52.020;113.548;2023-04-03T08:01:37;3.85;;;1.67;;
72404;SDS011;60395;52.020;113.548;2023-04-03T08:04:40;3.47;;;1.70;;
72404;SDS011;60395;52.020;113.548;2023-04-03T08:07:44;4.67;;;1.07;;
72404;SDS011;60395;52.020;113.548;2023-04-03T08:10:48;1.83;;;1.07;;
72404;SDS011;60395;52.020;113.548;2023-04-03T08:13:55;4.25;;;1.40;;
72404;SDS011;60395;52.020;113.548;2023-04-03T08:16:59;3.53;;;1.33;;
72404;SDS011;60395;52.020;113.548;2023-04-03T08:20:04;3.92;;;1.50;;
72404;SDS011;60395;52.020;113.548;2023-04-03T08:23:09;2.90;;;1.70;;
72404;SDS011;60395;52.020;113.548;2023-04-03T08:29:18;4.53;;;1.02;;
72404;SDS011;60395;52.020;113.548;2023-04-03T08:32:21;2.45;;;0.90;;
72404;SDS011;60395;52.020;113.548;2023-04-03T08:35:24;5.80;;;1.38;;
72404;SDS011;60395;52.020;113.548;2023-04-03T08:38:28;6.18;;;2.17;;
72404;SDS011;60395;52.020;113.548;2023-04-03T08:41:38;2.03;;;0.90;;
72404;SDS011;60395;52.020;113.548;2023-04-03T08:44:56;3.45;;;1.75;;
72404;SDS011;60395;52.020;113.548;2023-04-03T08:48:27;2.53;;;1.17;;
72404;SDS011;60395;52.020;113.548;2023-04-03T08:51:33;3.40;;;1.48;;
72404;SDS011;60395;52.020;113.548;2023-04-03T08:54:41;4.63;;;1.52;;
72404;SDS011;60395;52.020;113.548;2023-04-03T08:58:06;5.40;;;1.60;;
72404;SDS011;60395;52.020;113.548;2023-04-03T09:01:34;10.20;;;1.67;;
72404;SDS011;60395;52.020;113.548;2023-04-03T09:04:40;4.90;;;1.88;;
72404;SDS011;60395;52.020;113.548;2023-04-03T09:07:44;5.03;;;1.63;;
72404;SDS011;60395;52.020;113.548;2023-04-03T09:10:54;5.90;;;1.60;;
72404;SDS011;60395;52.020;113.548;2023-04-03T09:21:17;11.07;;;1.60;;
72404;SDS011;60395;52.020;113.548;2023-04-03T09:24:25;3.25;;;1.40;;
72404;SDS011;60395;52.020;113.548;2023-04-03T09:27:29;5.50;;;1.88;;
72404;SDS011;60395;52.020;113.548;2023-04-03T09:30:33;7.25;;;3.00;;
72404;SDS011;60395;52.020;113.548;2023-04-03T09:33:37;3.27;;;2.10;;
72404;SDS011;60395;52.020;113.548;2023-04-03T09:36:50;4.20;;;2.15;;
72404;SDS011;60395;52.020;113.548;2023-04-03T09:39:58;3.75;;;1.55;;
72404;SDS011;60395;52.020;113.548;2023-04-03T09:43:09;7.90;;;1.95;;
72404;SDS011;60395;52.020;113.548;2023-04-03T09:46:33;11.10;;;1.88;;
72404;SDS011;60395;52.020;113.548;2023-04-03T09:49:37;7.35;;;1.98;;
72404;SDS011;60395;52.020;113.548;2023-04-03T09:52:44;7.70;;;2.08;;
72404;SDS011;60395;52.020;113.548;2023-04-03T09:55:49;2.63;;;1.23;;
72404;SDS011;60395;52.020;113.548;2023-04-03T10:01:58;4.93;;;1.60;;
72404;SDS011;60395;52.020;113.548;2023-04-03T10:05:05;6.15;;;2.05;;
72404;SDS011;60395;52.020;113.548;2023-04-03T10:08:31;6.55;;;1.63;;
72404;SDS011;60395;52.020;113.548;2023-04-03T10:11:36;1.75;;;0.93;;
72404;SDS011;60395;52.020;113.548;2023-04-03T10:14:40;3.15;;;1.20;;
72404;SDS011;60395;52.020;113.548;2023-04-03T10:18:00;3.13;;;1.42;;
72404;SDS011;60395;52.020;113.548;2023-04-03T10:32:08;7.00;;;2.20;;
72404;SDS011;60395;52.020;113.548;2023-04-03T10:42:34;4.35;;;1.33;;
72404;SDS011;60395;52.020;113.548;2023-04-03T10:45:53;2.70;;;1.40;;
72404;SDS011;60395;52.020;113.548;2023-04-03T10:49:08;4.32;;;1.88;;
72404;SDS011;60395;52.020;113.548;2023-04-03T10:52:48;7.43;;;1.42;;
72404;SDS011;60395;52.020;113.548;2023-04-03T10:56:03;4.03;;;1.77;;
72404;SDS011;60395;52.020;113.548;2023-04-03T10:59:23;3.30;;;1.15;;
72404;SDS011;60395;52.020;113.548;2023-04-03T11:02:29;5.70;;;1.45;;
72404;SDS011;60395;52.020;113.548;2023-04-03T11:05:45;11.98;;;2.17;;
72404;SDS011;60395;52.020;113.548;2023-04-03T11:08:55;7.03;;;2.08;;
72404;SDS011;60395;52.020;113.548;2023-04-03T11:12:13;1.52;;;0.88;;
72404;SDS011;60395;52.020;113.548;2023-04-03T11:15:24;19.33;;;2.03;;
72404;SDS011;60395;52.020;113.548;2023-04-03T11:21:51;5.93;;;1.50;;
72404;SDS011;60395;52.020;113.548;2023-04-03T11:25:20;6.00;;;1.85;;
72404;SDS011;60395;52.020;113.548;2023-04-03T11:28:25;29.77;;;10.20;;
72404;SDS011;60395;52.020;113.548;2023-04-03T11:31:40;10.93;;;3.10;;
72404;SDS011;60395;52.020;113.548;2023-04-03T11:35:04;5.05;;;1.52;;
72404;SDS011;60395;52.020;113.548;2023-04-03T11:38:52;3.88;;;1.20;;
72404;SDS011;60395;52.020;113.548;2023-04-03T11:41:38;8.73;;;1.60;;
72404;SDS011;60395;52.020;113.548;2023-04-03T11:44:42;6.93;;;1.95;;
72404;SDS011;60395;52.020;113.548;2023-04-03T12:01:05;12.25;;;2.70;;
72404;SDS011;60395;52.020;113.548;2023-04-03T12:04:10;8.43;;;2.70;;
72404;SDS011;60395;52.020;113.548;2023-04-03T12:07:18;7.57;;;2.35;;
72404;SDS011;60395;52.020;113.548;2023-04-03T12:10:22;11.05;;;2.97;;
72404;SDS011;60395;52.020;113.548;2023-04-03T12:13:33;7.00;;;1.42;;
72404;SDS011;60395;52.020;113.548;2023-04-03T12:16:45;5.20;;;1.05;;
72404;SDS011;60395;52.020;113.548;2023-04-03T12:19:49;2.92;;;1.27;;
72404;SDS011;60395;52.020;113.548;2023-04-03T12:33:27;4.30;;;1.00;;
72404;SDS011;60395;52.020;113.548;2023-04-03T12:36:47;4.65;;;2.30;;
72404;SDS011;60395;52.020;113.548;2023-04-03T12:40:20;6.60;;;3.28;;
72404;SDS011;60395;52.020;113.548;2023-04-03T12:46:51;2.85;;;1.60;;
72404;SDS011;60395;52.020;113.548;2023-04-03T12:52:59;4.38;;;1.90;;
72404;SDS011;60395;52.020;113.548;2023-04-03T12:56:21;4.32;;;1.30;;
72404;SDS011;60395;52.020;113.548;2023-04-03T12:59:26;17.17;;;2.67;;
72404;SDS011;60395;52.020;113.548;2023-04-03T13:02:30;6.90;;;1.70;;
72404;SDS011;60395;52.020;113.548;2023-04-03T13:05:36;3.85;;;1.15;;
72404;SDS011;60395;52.020;113.548;2023-04-03T13:08:47;3.22;;;1.52;;
72404;SDS011;60395;52.020;113.548;2023-04-03T13:11:56;2.88;;;1.33;;
72404;SDS011;60395;52.020;113.548;2023-04-03T13:15:15;3.40;;;1.30;;
72404;SDS011;60395;52.020;113.548;2023-04-03T13:18:32;1.77;;;0.77;;
72404;SDS011;60395;52.020;113.548;2023-04-03T13:21:37;2.05;;;0.73;;
72404;SDS011;60395;52.020;113.548;2023-04-03T13:24:40;3.30;;;1.17;;
72404;SDS011;60395;52.020;113.548;2023-04-03T13:27:48;3.90;;;1.50;;
72404;SDS011;60395;52.020;113.548;2023-04-03T13:30:58;2.28;;;1.00;;
72404;SDS011;60395;52.020;113.548;2023-04-03T13:34:21;10.23;;;2.33;;
72404;SDS011;60395;52.020;113.548;2023-04-03T13:37:32;3.15;;;1.00;;
72404;SDS011;60395;52.020;113.548;2023-04-03T13:40:46;3.00;;;1.17;;
72404;SDS011;60395;52.020;113.548;2023-04-03T13:43:54;7.85;;;1.40;;
72404;SDS011;60395;52.020;113.548;2023-04-03T13:50:15;5.85;;;1.92;;
72404;SDS011;60395;52.020;113.548;2023-04-03T13:53:21;7.28;;;2.53;;
72404;SDS011;60395;52.020;113.548;2023-04-03T13:56:27;12.05;;;2.25;;
72404;SDS011;60395;52.020;113.548;2023-04-03T13:59:40;3.08;;;1.15;;
72404;SDS011;60395;52.020;113.548;2023-04-03T14:02:46;4.23;;;1.70;;
72404;SDS011;60395;52.020;113.548;2023-04-03T14:05:50;5.60;;;1.85;;
72404;SDS011;60395;52.020;113.548;2023-04-03T14:08:54;7.95;;;2.30;;
72404;SDS011;60395;52.020;113.548;2023-04-03T14:11:58;4.65;;;1.48;;
72404;SDS011;60395;52.020;113.548;2023-04-03T14:18:26;4.35;;;1.08;;
72404;SDS011;60395;52.020;113.548;2023-04-03T14:21:30;4.78;;;1.58;;
72404;SDS011;60395;52.020;113.548;2023-04-03T14:24:33;3.50;;;1.63;;
72404;SDS011;60395;52.020;113.548;2023-04-03T14:27:38;4.20;;;1.43;;
72404;SDS011;60395;52.020;113.548;2023-04-03T14:30:46;8.35;;;1.92;;
72404;SDS011;60395;52.020;113.548;2023-04-03T14:34:10;4.15;;;1.42;;
72404;SDS011;60395;52.020;113.548;2023-04-03T14:37:33;6.80;;;1.85;;
72404;SDS011;60395;52.020;113.548;2023-04-03T14:40:51;8.27;;;1.60;;
72404;SDS011;60395;52.020;113.548;2023-04-03T14:44:37;3.38;;;1.73;;
72404;SDS011;60395;52.020;113.548;2023-04-03T14:48:18;4.60;;;1.60;;
72404;SDS011;60395;52.020;113.548;2023-04-03T14:51:40;6.97;;;1.60;;
72404;SDS011;60395;52.020;113.548;2023-04-03T14:54:50;4.15;;;1.90;;
72404;SDS011;60395;52.020;113.548;2023-04-03T14:57:56;3.45;;;1.60;;
72404;SDS011;60395;52.020;113.548;2023-04-03T15:01:06;3.67;;;1.73;;
72404;SDS011;60395;52.020;113.548;2023-04-03T15:04:25;2.75;;;1.20;;
72404;SDS011;60395;52.020;113.548;2023-04-03T15:07:43;1.75;;;0.85;;
72404;SDS011;60395;52.020;113.548;2023-04-03T15:11:14;2.25;;;1.13;;
72404;SDS011;60395;52.020;113.548;2023-04-03T15:14:24;4.88;;;1.70;;
72404;SDS011;60395;52.020;113.548;2023-04-03T15:17:47;5.28;;;1.30;;
72404;SDS011;60395;52.020;113.548;2023-04-03T15:21:00;2.38;;;1.13;;
72404;SDS011;60395;52.020;113.548;2023-04-03T15:24:23;1.70;;;0.80;;
72404;SDS011;60395;52.020;113.548;2023-04-03T15:27:28;4.85;;;0.93;;
72404;SDS011;60395;52.020;113.548;2023-04-03T15:31:03;3.72;;;1.45;;
72404;SDS011;60395;52.020;113.548;2023-04-03T15:34:15;5.57;;;1.77;;
72404;SDS011;60395;52.020;113.548;2023-04-03T15:37:26;5.05;;;1.45;;
72404;SDS011;60395;52.020;113.548;2023-04-03T15:40:43;5.47;;;1.73;;
72404;SDS011;60395;52.020;113.548;2023-04-03T15:43:50;4.30;;;1.80;;
72404;SDS011;60395;52.020;113.548;2023-04-03T15:47:02;6.25;;;2.25;;
72404;SDS011;60395;52.020;113.548;2023-04-03T15:50:17;6.25;;;2.92;;
72404;SDS011;60395;52.020;113.548;2023-04-03T15:53:44;9.65;;;2.88;;
72404;SDS011;60395;52.020;113.548;2023-04-03T15:56:56;8.10;;;3.10;;
72404;SDS011;60395;52.020;113.548;2023-04-03T16:00:05;7.88;;;2.65;;
72404;SDS011;60395;52.020;113.548;2023-04-03T16:03:18;8.20;;;2.35;;
72404;SDS011;60395;52.020;113.548;2023-04-03T16:06:28;2.83;;;1.27;;
72404;SDS011;60395;52.020;113.548;2023-04-03T16:09:49;5.38;;;2.53;;
72404;SDS011;60395;52.020;113.548;2023-04-03T16:13:22;10.05;;;4.22;;
72404;SDS011;60395;52.020;113.548;2023-04-03T16:16:38;6.82;;;2.50;;
72404;SDS011;60395;52.020;113.548;2023-04-03T16:19:57;5.00;;;1.83;;
72404;SDS011;60395;52.020;113.548;2023-04-03T16:23:12;6.75;;;2.05;;
72404;SDS011;60395;52.020;113.548;2023-04-03T16:26:51;7.57;;;3.00;;
72404;SDS011;60395;52.020;113.548;2023-04-03T16:30:01;7.70;;;2.50;;
72404;SDS011;60395;52.020;113.548;2023-04-03T16:33:08;3.35;;;1.80;;
72404;SDS011;60395;52.020;113.548;2023-04-03T16:36:33;7.60;;;2.50;;
72404;SDS011;60395;52.020;113.548;2023-04-03T16:39:52;5.90;;;1.73;;
72404;SDS011;60395;52.020;113.548;2023-04-03T16:43:02;4.75;;;1.80;;
72404;SDS011;60395;52.020;113.548;2023-04-03T16:46:30;5.90;;;2.20;;
72404;SDS011;60395;52.020;113.548;2023-04-03T16:49:52;5.65;;;2.28;;
72404;SDS011;60395;52.020;113.548;2023-04-03T16:53:03;6.63;;;2.40;;
72404;SDS011;60395;52.020;113.548;2023-04-03T16:56:20;4.32;;;2.33;;
72404;SDS011;60395;52.020;113.548;2023-04-03T16:59:27;5.22;;;1.92;;
72404;SDS011;60395;52.020;113.548;2023-04-03T17:02:40;5.82;;;2.08;;
72404;SDS011;60395;52.020;113.548;2023-04-03T17:06:01;5.05;;;2.08;;
72404;SDS011;60395;52.020;113.548;2023-04-03T17:09:18;4.03;;;1.20;;
72404;SDS011;60395;52.020;113.548;2023-04-03T17:12:31;3.15;;;1.65;;
72404;SDS011;60395;52.020;113.548;2023-04-03T17:15:44;8.35;;;1.73;;
72404;SDS011;60395;52.020;113.548;2023-04-03T17:22:11;3.85;;;1.33;;
72404;SDS011;60395;52.020;113.548;2023-04-03T17:25:24;2.75;;;1.13;;
72404;SDS011;60395;52.020;113.548;2023-04-03T17:28:33;4.53;;;1.92;;
72404;SDS011;60395;52.020;113.548;2023-04-03T17:31:54;2.42;;;1.20;;
72404;SDS011;60395;52.020;113.548;2023-04-03T17:35:07;5.35;;;1.60;;
72404;SDS011;60395;52.020;113.548;2023-04-03T17:38:18;2.67;;;1.40;;
72404;SDS011;60395;52.020;113.548;2023-04-03T17:41:34;5.43;;;1.55;;
72404;SDS011;60395;52.020;113.548;2023-04-03T17:44:43;5.32;;;1.50;;
72404;SDS011;60395;52.020;113.548;2023-04-03T17:47:52;5.47;;;1.58;;
72404;SDS011;60395;52.020;113.548;2023-04-03T17:51:06;4.57;;;1.90;;
72404;SDS011;60395;52.020;113.548;2023-04-03T17:57:30;4.03;;;1.35;;
72404;SDS011;60395;52.020;113.548;2023-04-03T18:00:36;5.90;;;2.03;;
72404;SDS011;60395;52.020;113.548;2023-04-03T18:04:01;3.35;;;1.38;;
72404;SDS011;60395;52.020;113.548;2023-04-03T18:07:09;5.18;;;1.77;;
72404;SDS011;60395;52.020;113.548;2023-04-03T18:10:21;2.55;;;1.38;;
72404;SDS011;60395;52.020;113.548;2023-04-03T18:13:33;3.33;;;1.45;;
72404;SDS011;60395;52.020;113.548;2023-04-03T18:16:50;0.73;;;0.55;;
72404;SDS011;60395;52.020;113.548;2023-04-03T18:20:00;2.53;;;1.20;;
72404;SDS011;60395;52.020;113.548;2023-04-03T18:23:16;2.92;;;1.40;;
72404;SDS011;60395;52.020;113.548;2023-04-03T18:26:25;3.50;;;1.65;;
72404;SDS011;60395;52.020;113.548;2023-04-03T18:29:42;6.45;;;1.77;;
72404;SDS011;60395;52.020;113.548;2023-04-03T18:33:06;4.40;;;2.30;;
72404;SDS011;60395;52.020;113.548;2023-04-03T18:36:32;2.67;;;1.30;;
72404;SDS011;60395;52.020;113.548;2023-04-03T18:39:50;5.40;;;1.50;;
72404;SDS011;60395;52.020;113.548;2023-04-03T18:43:18;2.67;;;1.33;;
72404;SDS011;60395;52.020;113.548;2023-04-03T18:46:37;5.20;;;1.55;;
72404;SDS011;60395;52.020;113.548;2023-04-03T18:49:54;2.03;;;1.08;;
72404;SDS011;60395;52.020;113.548;2023-04-03T18:53:03;6.97;;;1.60;;
72404;SDS011;60395;52.020;113.548;2023-04-03T18:56:31;4.10;;;1.40;;
72404;SDS011;60395;52.020;113.548;2023-04-03T18:59:49;2.58;;;1.27;;
72404;SDS011;60395;52.020;113.548;2023-04-03T19:03:08;13.07;;;1.63;;
72404;SDS011;60395;52.020;113.548;2023-04-03T19:06:25;1.70;;;0.98;;
72404;SDS011;60395;52.020;113.548;2023-04-03T19:09:42;1.60;;;0.52;;
72404;SDS011;60395;52.020;113.548;2023-04-03T19:12:52;4.22;;;1.45;;
72404;SDS011;60395;52.020;113.548;2023-04-03T19:16:14;2.63;;;1.27;;
72404;SDS011;60395;52.020;113.548;2023-04-03T19:19:20;2.65;;;1.35;;
72404;SDS011;60395;52.020;113.548;2023-04-03T19:22:36;1.95;;;1.10;;
72404;SDS011;60395;52.020;113.548;2023-04-03T19:29:24;2.50;;;1.27;;
72404;SDS011;60395;52.020;113.548;2023-04-03T19:32:39;3.03;;;1.50;;
72404;SDS011;60395;52.020;113.548;2023-04-03T19:36:12;13.18;;;1.98;;
72404;SDS011;60395;52.020;113.548;2023-04-03T19:39:22;2.47;;;1.30;;
72404;SDS011;60395;52.020;113.548;2023-04-03T19:42:45;2.67;;;1.33;;
72404;SDS011;60395;52.020;113.548;2023-04-03T19:46:11;1.80;;;1.08;;
72404;SDS011;60395;52.020;113.548;2023-04-03T19:49:28;3.28;;;1.25;;
72404;SDS011;60395;52.020;113.548;2023-04-03T19:52:44;3.88;;;1.67;;
72404;SDS011;60395;52.020;113.548;2023-04-03T19:55:54;2.50;;;1.40;;
72404;SDS011;60395;52.020;113.548;2023-04-03T19:59:04;2.67;;;0.80;;
72404;SDS011;60395;52.020;113.548;2023-04-03T20:02:16;3.42;;;1.40;;
72404;SDS011;60395;52.020;113.548;2023-04-03T20:05:23;2.45;;;1.30;;
72404;SDS011;60395;52.020;113.548;2023-04-03T20:08:38;2.75;;;1.52;;
72404;SDS011;60395;52.020;113.548;2023-04-03T20:11:59;7.55;;;2.63;;
72404;SDS011;60395;52.020;113.548;2023-04-03T20:15:16;2.95;;;1.00;;
72404;SDS011;60395;52.020;113.548;2023-04-03T20:18:30;3.88;;;1.58;;
72404;SDS011;60395;52.020;113.548;2023-04-03T20:21:43;2.72;;;1.25;;
72404;SDS011;60395;52.020;113.548;2023-04-03T20:28:49;7.63;;;2.83;;
72404;SDS011;60395;52.020;113.548;2023-04-03T20:32:06;2.13;;;1.10;;
72404;SDS011;60395;52.020;113.548;2023-04-03T20:35:28;4.93;;;1.20;;
72404;SDS011;60395;52.020;113.548;2023-04-03T20:38:45;2.05;;;0.95;;
72404;SDS011;60395;52.020;113.548;2023-04-03T20:41:54;2.33;;;0.73;;
72404;SDS011;60395;52.020;113.548;2023-04-03T20:45:12;6.68;;;1.70;;
72404;SDS011;60395;52.020;113.548;2023-04-03T20:48:36;2.60;;;1.42;;
72404;SDS011;60395;52.020;113.548;2023-04-03T20:51:46;3.53;;;1.50;;
72404;SDS011;60395;52.020;113.548;2023-04-03T20:54:59;3.03;;;1.30;;
72404;SDS011;60395;52.020;113.548;2023-04-03T20:58:04;3.97;;;1.70;;
72404;SDS011;60395;52.020;113.548;2023-04-03T21:01:24;6.72;;;1.50;;
72404;SDS011;60395;52.020;113.548;2023-04-03T21:04:36;3.03;;;1.25;;
72404;SDS011;60395;52.020;113.548;2023-04-03T21:22:28;4.05;;;1.35;;
72404;SDS011;60395;52.020;113.548;2023-04-03T21:25:47;4.90;;;1.73;;
72404;SDS011;60395;52.020;113.548;2023-04-03T21:28:57;4.72;;;1.73;;
72404;SDS011;60395;52.020;113.548;2023-04-03T21:32:26;4.50;;;2.35;;
72404;SDS011;60395;52.020;113.548;2023-04-03T21:35:56;5.72;;;2.53;;
72404;SDS011;60395;52.020;113.548;2023-04-03T21:39:19;18.50;;;5.88;;
72404;SDS011;60395;52.020;113.548;2023-04-03T21:42:36;25.67;;;9.00;;
72404;SDS011;60395;52.020;113.548;2023-04-03T21:45:58;20.50;;;6.55;;
72404;SDS011;60395;52.020;113.548;2023-04-03T21:49:27;8.30;;;3.47;;
72404;SDS011;60395;52.020;113.548;2023-04-03T21:52:37;14.00;;;5.47;;
72404;SDS011;60395;52.020;113.548;2023-04-03T21:56:01;4.55;;;2.40;;
72404;SDS011;60395;52.020;113.548;2023-04-03T21:59:21;4.93;;;2.45;;
72404;SDS011;60395;52.020;113.548;2023-04-03T22:02:38;5.53;;;2.03;;
72404;SDS011;60395;52.020;113.548;2023-04-03T22:06:15;2.63;;;1.77;;
72404;SDS011;60395;52.020;113.548;2023-04-03T22:09:32;17.83;;;4.45;;
72404;SDS011;60395;52.020;113.548;2023-04-03T22:12:38;6.43;;;3.28;;
72404;SDS011;60395;52.020;113.548;2023-04-03T22:15:50;4.43;;;2.13;;
72404;SDS011;60395;52.020;113.548;2023-04-03T22:19:04;18.77;;;3.17;;
72404;SDS011;60395;52.020;113.548;2023-04-03T22:22:11;10.65;;;2.83;;
72404;SDS011;60395;52.020;113.548;2023-04-03T22:25:19;5.65;;;2.60;;
72404;SDS011;60395;52.020;113.548;2023-04-03T22:28:36;7.85;;;2.80;;
72404;SDS011;60395;52.020;113.548;2023-04-03T22:31:44;15.27;;;3.35;;
72404;SDS011;60395;52.020;113.548;2023-04-03T22:34:48;14.93;;;5.05;;
72404;SDS011;60395;52.020;113.548;2023-04-03T22:37:51;2.30;;;1.20;;
72404;SDS011;60395;52.020;113.548;2023-04-03T22:40:55;3.75;;;2.03;;
72404;SDS011;60395;52.020;113.548;2023-04-03T22:44:03;5.03;;;1.80;;
72404;SDS011;60395;52.020;113.548;2023-04-03T22:47:07;6.18;;;1.73;;
72404;SDS011;60395;52.020;113.548;2023-04-03T22:50:10;5.68;;;2.50;;
72404;SDS011;60395;52.020;113.548;2023-04-03T22:53:14;29.65;;;2.80;;
72404;SDS011;60395;52.020;113.548;2023-04-03T22:56:18;5.70;;;3.28;;
72404;SDS011;60395;52.020;113.548;2023-04-03T22:59:21;22.27;;;4.00;;
72404;SDS011;60395;52.020;113.548;2023-04-03T23:02:24;20.58;;;6.78;;
72404;SDS011;60395;52.020;113.548;2023-04-03T23:05:28;20.33;;;7.57;;
72404;SDS011;60395;52.020;113.548;2023-04-03T23:08:31;31.20;;;11.68;;
72404;SDS011;60395;52.020;113.548;2023-04-03T23:11:36;33.03;;;14.65;;
72404;SDS011;60395;52.020;113.548;2023-04-03T23:14:39;33.80;;;15.05;;
72404;SDS011;60395;52.020;113.548;2023-04-03T23:17:42;27.00;;;10.02;;
72404;SDS011;60395;52.020;113.548;2023-04-03T23:20:46;23.38;;;10.13;;
72404;SDS011;60395;52.020;113.548;2023-04-03T23:23:49;17.92;;;5.80;;
72404;SDS011;60395;52.020;113.548;2023-04-03T23:26:53;16.98;;;6.70;;
72404;SDS011;60395;52.020;113.548;2023-04-03T23:29:56;17.63;;;5.90;;
72404;SDS011;60395;52.020;113.548;2023-04-03T23:33:00;16.13;;;5.90;;
72404;SDS011;60395;52.020;113.548;2023-04-03T23:36:06;25.83;;;5.63;;
72404;SDS011;60395;52.020;113.548;2023-04-03T23:39:10;32.72;;;7.60;;
72404;SDS011;60395;52.020;113.548;2023-04-03T23:42:13;19.27;;;5.47;;
72404;SDS011;60395;52.020;113.548;2023-04-03T23:45:16;15.07;;;3.83;;
72404;SDS011;60395;52.020;113.548;2023-04-03T23:48:20;21.15;;;4.45;;
72404;SDS011;60395;52.020;113.548;2023-04-03T23:51:23;15.15;;;3.10;;
72404;SDS011;60395;52.020;113.548;2023-04-03T23:54:26;15.68;;;7.32;;
72404;SDS011;60395;52.020;113.548;2023-04-03T23:57:29;7.03;;;2.65;;
